Time;durP1;ratioP1;P1;durP2;ratioP2;P2;SDS_P1;SDS_P2;PMS_P1;PMS_P2;Temp;Humidity;BMP_temperature;BMP_pressure;BME280_temperature;BME280_humidity;BME280_pressure;Samples;Min_cycle;Max_cycle;Signal;HPM_P1;HPM_P2
2023/04/22 00:02:31;;;;;;;69.20;36.80;;;;;;;3.77;76.54;98950.20;270634;1272;23095;-88
2023/04/22 00:10:33;;;;;;;60.90;31.70;;;;;;;3.64;77.52;98948.93;270716;1278;22384;-90
2023/04/22 00:18:06;;;;;;;69.90;36.70;;;;;;;3.66;78.02;98949.23;269446;1275;26224;-88
2023/04/22 00:24:15;;;;;;;63.10;34.50;;;;;;;3.54;77.95;98950.05;270127;1267;22562;-90
2023/04/22 00:31:44;;;;;;;61.90;32.50;;;;;;;3.50;78.82;98948.41;271029;1266;22486;-88
2023/04/22 00:38:53;;;;;;;58.00;33.70;;;;;;;3.44;79.16;98942.61;272776;1267;22347;-89
2023/04/22 00:46:38;;;;;;;61.40;32.60;;;;;;;3.37;79.41;98940.41;271983;1275;22405;-89
2023/04/22 00:54:29;;;;;;;54.80;31.10;;;;;;;3.43;80.54;98944.66;270608;1278;23908;-88
2023/04/22 01:02:17;;;;;;;56.50;31.10;;;;;;;3.33;79.93;98942.58;268415;1275;22165;-89
2023/04/22 01:09:48;;;;;;;56.20;31.10;;;;;;;3.15;80.23;98941.60;270328;1278;22585;-89
2023/04/22 01:17:30;;;;;;;58.10;32.10;;;;;;;3.01;80.69;98947.30;270338;1269;23356;-88
2023/04/22 01:24:58;;;;;;;49.70;28.40;;;;;;;2.97;81.05;98948.92;270862;1269;23527;-89
2023/04/22 01:48:10;;;;;;;54.20;28.50;;;;;;;2.80;81.68;98948.84;271967;1265;22386;-88
2023/04/22 01:56:10;;;;;;;53.70;29.40;;;;;;;2.63;81.76;98951.06;270522;1273;25363;-89
2023/04/22 02:19:50;;;;;;;39.10;21.90;;;;;;;2.28;83.73;98946.58;273759;1267;22515;-89
2023/04/22 02:27:14;;;;;;;57.60;30.00;;;;;;;2.25;83.78;98945.91;273312;1266;22553;-90
2023/04/22 02:34:37;;;;;;;42.60;24.80;;;;;;;2.18;83.96;98939.12;273433;1266;22938;-89
2023/04/22 02:41:25;;;;;;;46.10;27.10;;;;;;;2.21;84.71;98940.39;272561;1267;22548;-91
2023/04/22 02:56:47;;;;;;;48.40;28.10;;;;;;;2.10;84.89;98936.30;270427;1257;24233;-89
2023/04/22 03:04:20;;;;;;;52.10;28.20;;;;;;;2.00;84.88;98944.75;269641;1275;24347;-89
2023/04/22 03:19:16;;;;;;;46.80;24.40;;;;;;;1.93;85.51;98952.44;272672;1266;22327;-90
2023/04/22 03:26:39;;;;;;;46.80;27.70;;;;;;;1.92;85.66;98950.04;273043;1265;22263;-90
2023/04/22 03:57:58;;;;;;;52.40;27.60;;;;;;;1.68;86.45;98954.59;273300;1266;22228;-89
2023/04/22 04:05:57;;;;;;;46.90;25.00;;;;;;;1.60;86.59;98964.55;273818;1266;22192;-88
2023/04/22 04:13:31;;;;;;;49.80;26.70;;;;;;;1.66;87.27;98966.68;273260;1266;22799;-89
2023/04/22 04:28:19;;;;;;;50.10;27.40;;;;;;;2.06;88.48;98972.79;271429;1275;22353;-90
2023/04/22 04:35:47;;;;;;;48.50;26.90;;;;;;;2.17;88.42;98975.27;271591;1270;28029;-87
2023/04/22 04:43:07;;;;;;;58.00;29.80;;;;;;;2.28;89.08;98976.98;271392;1272;22582;-89
2023/04/22 04:50:32;;;;;;;53.00;28.60;;;;;;;2.51;89.87;98981.29;271120;1272;24208;-89
2023/04/22 04:57:18;;;;;;;50.90;27.40;;;;;;;2.81;90.64;98982.33;271254;1270;23331;-88
2023/04/22 05:04:49;;;;;;;52.60;28.20;;;;;;;3.25;91.50;98980.36;273354;1251;22560;-89
2023/04/22 05:11:43;;;;;;;44.50;26.80;;;;;;;3.76;91.62;98977.23;271056;1266;23430;-89
2023/04/22 05:19:15;;;;;;;51.00;27.10;;;;;;;4.19;91.12;98977.41;270729;1266;23664;-89
2023/04/22 05:26:24;;;;;;;46.80;24.50;;;;;;;4.63;90.36;98979.38;272989;1267;22378;-89
2023/04/22 05:34:34;;;;;;;47.10;27.00;;;;;;;5.17;89.89;98976.04;271163;1267;22228;-89
2023/04/22 05:49:28;;;;;;;49.10;27.40;;;;;;;6.27;89.70;98978.59;270493;1270;22621;-89
2023/04/22 05:57:09;;;;;;;42.80;24.70;;;;;;;6.86;88.86;98979.99;270236;1266;22582;-89
2023/04/22 06:04:10;;;;;;;42.50;23.60;;;;;;;7.46;87.26;98981.45;270349;1266;24377;-89
2023/04/22 06:11:35;;;;;;;36.20;21.20;;;;;;;8.13;86.13;98981.20;271251;1267;23229;-88
2023/04/22 06:19:56;;;;;;;;;;;;;;;;;;;;;
2023/04/22 06:27:24;;;;;;;35.00;21.50;;;;;;;9.31;82.85;98984.55;270895;1267;22373;-88
2023/04/22 06:34:56;;;;;;;32.20;19.20;;;;;;;9.84;81.62;98983.92;273959;1267;22323;-88
2023/04/22 06:42:31;;;;;;;32.20;19.10;;;;;;;10.35;80.17;98978.67;271261;1269;22531;-88
2023/04/22 06:50:38;;;;;;;34.90;19.20;;;;;;;10.86;79.00;98982.04;273195;1269;22360;-89
2023/04/22 07:06:24;;;;;;;20.70;13.40;;;;;;;11.66;75.76;98976.13;271691;1273;22384;-87
2023/04/22 07:13:45;;;;;;;22.10;13.50;;;;;;;11.98;74.23;98973.27;272386;1278;22370;-87
2023/04/22 07:19:50;;;;;;;23.10;12.90;;;;;;;12.36;73.65;98975.23;273135;1272;22224;-89
2023/04/22 07:27:45;;;;;;;20.20;12.30;;;;;;;12.77;72.61;98969.23;273714;1266;22217;-87
2023/04/22 07:35:12;;;;;;;19.50;12.30;;;;;;;13.36;72.41;98969.05;270163;1266;22640;-86
2023/04/22 07:58:59;;;;;;;21.10;10.70;;;;;;;16.12;67.92;98962.64;270197;1270;23312;-88
2023/04/22 08:06:44;;;;;;;14.40;9.30;;;;;;;17.01;64.99;98960.12;269437;1267;24005;-87
2023/04/22 08:13:41;;;;;;;13.70;9.30;;;;;;;17.53;63.24;98957.27;270318;1271;22636;-87
2023/04/22 08:20:08;;;;;;;14.40;9.30;;;;;;;17.94;62.62;98951.38;270215;1266;23499;-87
2023/04/22 08:26:50;;;;;;;10.50;7.50;;;;;;;18.11;62.27;98950.08;270070;1272;26485;-87
2023/04/22 08:33:23;;;;;;;9.40;5.10;;;;;;;18.24;61.61;98951.01;270400;1271;23516;-87
2023/04/22 08:40:47;;;;;;;9.40;4.70;;;;;;;18.51;59.46;98955.60;269937;1272;22910;-86
2023/04/22 08:47:43;;;;;;;9.40;4.30;;;;;;;18.68;57.02;98949.93;271377;1270;22366;-86
2023/04/22 09:02:43;;;;;;;5.50;3.70;;;;;;;19.33;53.59;98946.20;272409;1266;22176;-87
2023/04/22 09:09:19;;;;;;;5.90;4.00;;;;;;;19.48;51.92;98943.92;271919;1267;22633;-88
2023/04/22 09:16:24;;;;;;;6.20;4.60;;;;;;;19.65;49.09;98944.05;272979;1266;22336;-88
2023/04/22 09:39:11;;;;;;;6.40;3.80;;;;;;;21.21;43.27;98916.40;271189;1266;22524;-89
2023/04/22 09:46:59;;;;;;;5.90;3.60;;;;;;;21.94;38.02;98904.84;271003;1275;22511;-88
2023/04/22 09:54:14;;;;;;;6.50;4.30;;;;;;;21.81;35.72;98905.55;272875;1274;23197;-87
2023/04/22 10:02:25;;;;;;;6.20;4.30;;;;;;;22.00;35.36;98891.31;272235;1273;22344;-88
2023/04/22 10:09:52;;;;;;;7.90;4.40;;;;;;;22.45;34.61;98890.61;267316;1287;23194;-86
2023/04/22 10:16:42;;;;;;;7.10;4.70;;;;;;;22.37;32.79;98892.98;269147;1282;22240;-87
2023/04/22 10:23:40;;;;;;;7.30;4.00;;;;;;;22.40;32.40;98887.54;268902;1277;22463;-87
2023/04/22 10:30:21;;;;;;;8.70;3.60;;;;;;;22.66;33.26;98882.63;268285;1279;27032;-87
2023/04/22 10:52:00;;;;;;;9.40;3.70;;;;;;;23.61;33.03;98873.10;270326;1267;23188;-88
2023/04/22 10:58:43;;;;;;;6.40;3.80;;;;;;;23.87;32.30;98866.05;269968;1267;22464;-85
2023/04/22 11:05:13;;;;;;;5.30;3.40;;;;;;;23.69;32.02;98864.73;270271;1271;22556;-88
2023/04/22 11:12:38;;;;;;;4.70;3.20;;;;;;;23.62;30.42;98861.80;272048;1267;22392;-87
2023/04/22 11:19:42;;;;;;;4.50;3.30;;;;;;;23.98;31.29;98849.98;271158;1266;22596;-86
2023/04/22 11:27:25;;;;;;;5.50;3.50;;;;;;;24.46;31.03;98845.14;273946;1273;22794;-87
2023/04/22 11:34:28;;;;;;;6.10;3.50;;;;;;;24.71;30.71;98834.44;273688;1270;22392;-88
2023/04/22 11:40:45;;;;;;;5.10;3.00;;;;;;;24.72;29.74;98824.69;268915;1272;5357940;-86
2023/04/22 11:47:11;;;;;;;4.10;2.60;;;;;;;24.98;29.87;98820.80;272572;1262;22596;-84
2023/04/22 11:55:03;;;;;;;3.50;2.30;;;;;;;25.09;29.45;98818.65;273960;1267;22167;-86
2023/04/22 12:01:34;;;;;;;4.00;2.60;;;;;;;24.91;29.59;98806.17;271059;1269;22379;-86
2023/04/22 12:09:30;;;;;;;4.50;2.70;;;;;;;24.55;29.18;98805.13;273696;1267;22206;-86
2023/04/22 12:16:42;;;;;;;3.00;2.60;;;;;;;23.75;28.37;98808.77;271679;1275;24228;-85
2023/04/22 12:23:45;;;;;;;3.70;2.40;;;;;;;23.10;28.21;98804.60;270646;1273;22580;-85
2023/04/22 12:30:05;;;;;;;4.40;2.40;;;;;;;23.13;28.44;98803.42;270091;1270;23612;-86
2023/04/22 12:36:50;;;;;;;6.10;3.00;;;;;;;23.07;28.47;98797.55;270071;1270;22568;-85
2023/04/22 12:43:28;;;;;;;3.50;2.60;;;;;;;23.08;28.51;98792.23;271702;1274;23573;-85
2023/04/22 12:50:17;;;;;;;4.20;2.60;;;;;;;22.95;28.31;98784.16;273663;1267;22189;-86
2023/04/22 12:57:07;;;;;;;5.80;2.80;;;;;;;22.74;28.22;98776.83;273797;1267;22395;-85
2023/04/22 13:03:12;;;;;;;5.40;3.00;;;;;;;22.78;28.09;98768.46;273940;1267;23136;-85
2023/04/22 13:09:28;;;;;;;4.10;2.30;;;;;;;22.98;28.71;98762.48;272411;1266;22585;-84
2023/04/22 13:15:30;;;;;;;4.30;2.90;;;;;;;23.44;28.81;98754.39;273001;1268;22343;-87
2023/04/22 13:21:34;;;;;;;6.80;2.70;;;;;;;23.45;28.39;98752.33;272856;1263;22933;-85
2023/04/22 13:27:46;;;;;;;4.20;3.30;;;;;;;23.27;28.26;98749.45;273913;1251;22380;-86
2023/04/22 13:34:16;;;;;;;4.00;3.00;;;;;;;23.01;27.78;98746.42;273897;1267;22326;-85
2023/04/22 13:40:20;;;;;;;3.70;2.60;;;;;;;22.53;27.51;98742.61;273919;1267;22902;-85
2023/04/22 13:53:50;;;;;;;4.70;2.40;;;;;;;22.62;27.99;98738.52;273833;1267;22223;-86
2023/04/22 14:00:42;;;;;;;4.10;3.20;;;;;;;22.57;27.71;98735.83;273870;1272;23251;-85
2023/04/22 14:13:49;;;;;;;6.60;3.30;;;;;;;22.62;28.42;98722.18;271760;1267;22574;-85
2023/04/22 14:20:12;;;;;;;4.80;3.00;;;;;;;22.47;28.69;98717.59;271199;1267;22416;-86
2023/04/22 14:27:23;;;;;;;3.60;2.90;;;;;;;22.24;29.06;98716.24;272047;1261;22559;-85
2023/04/22 14:34:13;;;;;;;8.10;4.30;;;;;;;21.91;28.99;98713.09;271300;1266;22561;-88
2023/04/22 14:40:15;;;;;;;5.50;3.40;;;;;;;21.59;28.73;98713.95;272262;1258;22220;-84
2023/04/22 14:46:40;;;;;;;5.70;3.60;;;;;;;21.32;28.86;98710.92;273439;1267;23636;-86
2023/04/22 14:52:45;;;;;;;7.70;5.10;;;;;;;21.13;28.98;98708.27;272337;1267;26417;-87
2023/04/22 14:59:14;;;;;;;5.30;3.20;;;;;;;21.10;28.99;98702.41;272087;1266;22200;-87
2023/04/22 15:05:58;;;;;;;5.00;3.30;;;;;;;21.06;28.98;98695.98;273631;1260;22463;-87
2023/04/22 15:13:07;;;;;;;5.60;3.10;;;;;;;20.88;29.01;98695.20;273328;1266;22867;-88
2023/04/22 15:20:18;;;;;;;5.20;3.40;;;;;;;20.68;29.49;98693.60;274051;1266;22396;-84
2023/04/22 15:26:23;;;;;;;7.30;3.20;;;;;;;20.51;29.42;98693.88;273652;1267;22158;-85
2023/04/22 15:33:49;;;;;;;7.80;4.30;;;;;;;20.31;29.61;98695.96;271925;1266;22890;-84
2023/04/22 15:41:18;;;;;;;5.70;3.70;;;;;;;20.04;29.77;98694.18;271758;1270;22569;-85
2023/04/22 15:47:53;;;;;;;9.90;3.60;;;;;;;19.83;30.09;98695.09;271003;1267;22452;-84
2023/04/22 15:53:58;;;;;;;6.10;3.60;;;;;;;19.69;30.09;98691.33;272597;1267;23401;-85
2023/04/22 16:01:33;;;;;;;5.90;3.70;;;;;;;19.55;30.31;98690.56;272457;1273;23209;-85
2023/04/22 16:08:23;;;;;;;7.50;3.60;;;;;;;19.39;30.64;98688.42;272665;1270;23496;-85
2023/04/22 16:14:25;;;;;;;6.90;3.50;;;;;;;19.19;30.95;98685.33;273341;1270;22266;-84
2023/04/22 16:21:20;;;;;;;4.80;3.80;;;;;;;19.05;31.36;98687.69;273307;1267;22428;-87
2023/04/22 16:28:55;;;;;;;3.90;3.20;;;;;;;18.90;31.44;98690.80;272834;1273;23305;-87
2023/04/22 16:36:29;;;;;;;7.40;3.60;;;;;;;18.66;31.84;98686.83;272621;1272;22283;-87
2023/04/22 16:43:12;;;;;;;6.10;3.50;;;;;;;18.45;32.33;98683.83;273026;1272;22236;-86
2023/04/22 16:49:55;;;;;;;7.70;3.60;;;;;;;18.24;32.62;98687.27;273239;1272;23324;-86
2023/04/22 17:04:37;;;;;;;7.80;3.90;;;;;;;17.82;33.30;98688.87;272563;1273;22687;-86
2023/04/22 17:10:56;;;;;;;;;;;;;;;;;;;;;
2023/04/22 17:17:26;;;;;;;8.40;4.30;;;;;;;17.41;34.12;98686.21;272483;1275;23040;-87
2023/04/22 17:23:32;;;;;;;7.90;3.90;;;;;;;17.16;34.28;98688.85;272464;1275;22415;-85
2023/04/22 17:29:52;;;;;;;7.00;5.00;;;;;;;16.92;34.64;98690.34;272368;1267;22205;-85
2023/04/22 17:36:37;;;;;;;9.30;5.10;;;;;;;16.66;35.17;98692.02;274046;1254;22234;-85
2023/04/22 17:42:42;;;;;;;8.50;4.10;;;;;;;16.40;35.43;98694.44;273950;1266;22521;-85
2023/04/22 17:49:10;;;;;;;6.50;4.00;;;;;;;16.16;35.92;98698.36;273852;1266;22497;-85
2023/04/22 17:55:57;;;;;;;11.30;4.90;;;;;;;15.90;36.21;98705.63;273481;1269;22347;-86
2023/04/22 18:02:03;;;;;;;6.60;4.00;;;;;;;15.63;36.59;98715.39;273382;1269;23410;-86
2023/04/22 18:08:35;;;;;;;8.70;4.70;;;;;;;15.36;36.96;98721.09;273370;1269;22346;-86
2023/04/22 18:15:06;;;;;;;10.70;6.80;;;;;;;15.05;37.50;98725.54;273385;1269;23366;-86
2023/04/22 18:22:31;;;;;;;;;;;;;;;;;;;;;
2023/04/22 18:29:04;;;;;;;13.20;6.00;;;;;;;14.41;38.58;98732.70;272750;1270;23542;-85
2023/04/22 18:35:17;;;;;;;10.60;4.90;;;;;;;14.30;38.83;98738.07;273820;1266;22506;-86
2023/04/22 18:41:46;;;;;;;9.70;5.40;;;;;;;14.14;39.21;98739.17;273456;1267;23918;-87
2023/04/22 18:48:40;;;;;;;7.70;5.00;;;;;;;14.02;39.50;98738.08;273472;1267;22678;-86
2023/04/22 18:56:23;;;;;;;8.70;4.60;;;;;;;13.81;39.85;98744.97;265847;1267;10001806;-86
2023/04/22 19:02:25;;;;;;;7.60;4.50;;;;;;;13.52;40.76;98742.22;272811;1265;23116;-85
2023/04/22 19:09:08;;;;;;;11.50;7.10;;;;;;;13.23;41.82;98737.54;272762;1272;22242;-87
2023/04/22 19:16:59;;;;;;;11.10;7.10;;;;;;;12.89;42.82;98737.70;272031;1272;22248;-86
2023/04/22 19:24:05;;;;;;;18.40;10.50;;;;;;;12.57;43.82;98739.08;271315;1265;22638;-86
2023/04/22 19:31:12;;;;;;;216.10;102.90;;;;;;;12.15;45.20;98733.28;271728;1272;23212;-86
2023/04/22 19:38:33;;;;;;;28.50;15.60;;;;;;;11.85;46.49;98726.05;272489;1257;23138;-87
2023/04/22 19:45:42;;;;;;;18.80;10.90;;;;;;;11.64;49.17;98729.20;272603;1272;22330;-86
2023/04/22 19:52:49;;;;;;;18.90;11.50;;;;;;;11.40;49.07;98730.59;272880;1271;22362;-86
2023/04/22 19:59:17;;;;;;;19.70;10.80;;;;;;;11.05;48.57;98725.52;272828;1272;22360;-87
2023/04/22 20:05:59;;;;;;;14.00;10.00;;;;;;;10.85;50.26;98728.15;272920;1272;22358;-86
2023/04/22 20:13:04;;;;;;;16.70;9.40;;;;;;;10.72;50.83;98726.98;273047;1272;22233;-86
2023/04/22 20:19:34;;;;;;;19.60;11.30;;;;;;;10.58;51.21;98725.16;272300;1270;22669;-89
2023/04/22 20:27:05;;;;;;;22.20;11.80;;;;;;;10.41;53.60;98729.49;273577;1269;22368;-87
2023/04/22 20:34:15;;;;;;;60.40;29.20;;;;;;;10.19;54.25;98728.15;271850;1269;24281;-87
2023/04/22 20:41:24;;;;;;;59.80;30.40;;;;;;;9.97;54.42;98733.08;271157;1265;22673;-87
2023/04/22 20:48:33;;;;;;;69.90;35.50;;;;;;;9.68;55.60;98730.30;270596;1275;23191;-86
2023/04/22 20:56:31;;;;;;;142.00;67.20;;;;;;;9.54;56.35;98726.63;271700;1277;22416;-87
2023/04/22 21:03:07;;;;;;;120.30;58.30;;;;;;;9.32;56.07;98726.55;269848;1276;22543;-86
2023/04/22 21:10:45;;;;;;;116.80;58.30;;;;;;;8.96;56.13;98721.49;270156;1276;23241;-87
2023/04/22 21:18:14;;;;;;;126.00;56.40;;;;;;;8.74;57.04;98713.40;272805;1270;22555;-87
2023/04/22 21:26:13;;;;;;;104.10;51.80;;;;;;;8.62;58.24;98716.58;273431;1266;25482;-86
2023/04/22 21:33:46;;;;;;;86.80;39.60;;;;;;;8.39;58.28;98716.80;269747;1266;22755;-87
2023/04/22 21:39:57;;;;;;;59.20;31.10;;;;;;;8.27;59.95;98720.17;273394;1266;26509;-86
2023/04/22 21:54:15;;;;;;;38.70;20.60;;;;;;;7.93;60.68;98714.86;273921;1266;22271;-87
2023/04/22 22:00:56;;;;;;;36.80;19.50;;;;;;;7.80;61.92;98719.36;273934;1256;22340;-87
2023/04/22 22:07:57;;;;;;;53.00;23.00;;;;;;;7.68;62.54;98721.17;274209;1256;22226;-86
2023/04/22 22:14:33;;;;;;;33.30;19.20;;;;;;;7.57;63.47;98721.21;273678;1266;22209;-87
2023/04/22 22:22:40;;;;;;;40.20;21.60;;;;;;;7.43;64.45;98718.45;273508;1266;22248;-87
2023/04/22 22:30:08;;;;;;;45.10;22.50;;;;;;;7.24;64.67;98728.13;273840;1266;22289;-87
2023/04/22 22:45:32;;;;;;;59.00;29.40;;;;;;;6.76;65.59;98733.03;273465;1266;23526;-87
2023/04/22 22:52:34;;;;;;;49.00;26.10;;;;;;;6.60;65.98;98727.69;271525;1270;22379;-86
2023/04/22 23:00:06;;;;;;;39.00;20.90;;;;;;;6.35;66.83;98723.24;271472;1273;23407;-86
2023/04/22 23:08:15;;;;;;;33.00;19.50;;;;;;;6.23;67.83;98728.16;271372;1275;22404;-87
2023/04/22 23:23:21;;;;;;;56.60;29.50;;;;;;;6.14;68.97;98725.55;272187;1273;23464;-87
2023/04/22 23:38:26;;;;;;;66.30;31.70;;;;;;;5.99;70.13;98728.73;269787;1267;5083059;-86
2023/04/22 23:45:37;;;;;;;42.40;24.30;;;;;;;5.87;70.92;98730.06;274032;1266;22393;-86
2023/04/22 23:53:09;;;;;;;53.10;30.50;;;;;;;5.67;70.86;98729.06;273369;1266;23981;-87
